createdAt,value
2023-02-06T00:01:07.283Z,0.70
2023-02-06T00:03:38.330Z,0.63
2023-02-06T00:06:09.661Z,0.70
2023-02-06T00:08:40.733Z,0.90
2023-02-06T00:16:29.156Z,0.70
2023-02-06T00:19:01.675Z,0.73
2023-02-06T00:21:33.305Z,0.80
2023-02-06T00:24:05.574Z,0.80
2023-02-06T00:26:37.027Z,0.70
2023-02-06T00:29:08.042Z,1.10
2023-02-06T00:31:39.179Z,0.73
2023-02-06T00:34:10.285Z,0.70
2023-02-06T00:36:43.327Z,0.60
2023-02-06T00:39:14.442Z,0.70
2023-02-06T00:41:46.794Z,0.80
2023-02-06T00:44:18.038Z,0.80
2023-02-06T00:49:20.637Z,0.73
2023-02-06T00:54:22.768Z,0.93
2023-02-06T00:56:53.952Z,1.00
2023-02-06T00:59:25.334Z,0.90
2023-02-06T01:01:56.693Z,0.80
2023-02-06T01:04:27.728Z,0.90
2023-02-06T01:06:58.668Z,1.00
2023-02-06T01:09:29.918Z,0.77
2023-02-06T01:12:01.039Z,0.75
2023-02-06T01:17:03.048Z,0.60
2023-02-06T01:19:34.461Z,0.60
2023-02-06T01:22:05.479Z,0.70
2023-02-06T01:24:36.681Z,0.60
2023-02-06T01:27:08.030Z,0.40
2023-02-06T01:29:39.221Z,0.60
2023-02-06T01:32:10.451Z,0.70
2023-02-06T01:34:41.957Z,0.60
2023-02-06T01:37:13.177Z,0.60
2023-02-06T01:42:16.786Z,0.60
2023-02-06T01:44:48.869Z,0.60
2023-02-06T01:47:20.717Z,0.70
2023-02-06T01:52:27.514Z,0.65
2023-02-06T01:55:05.556Z,0.70
2023-02-06T01:57:37.546Z,0.80
2023-02-06T02:00:12.381Z,0.90
2023-02-06T02:02:49.791Z,1.02
2023-02-06T02:05:22.436Z,0.93
2023-02-06T02:08:02.797Z,1.00
2023-02-06T02:10:34.492Z,1.10
2023-02-06T02:13:05.542Z,0.90
2023-02-06T02:16:03.430Z,1.10
2023-02-06T02:18:54.096Z,1.15
2023-02-06T02:21:55.803Z,1.02
2023-02-06T02:24:33.026Z,1.00
2023-02-06T02:27:22.655Z,1.10
2023-02-06T02:30:30.426Z,1.10
2023-02-06T02:33:35.357Z,1.08
2023-02-06T02:36:17.503Z,1.35
2023-02-06T02:38:51.926Z,1.15
2023-02-06T02:41:51.408Z,1.20
2023-02-06T02:44:37.869Z,1.15
2023-02-06T02:47:10.983Z,1.20
2023-02-06T02:49:44.300Z,1.50
2023-02-06T02:52:17.668Z,1.40
2023-02-06T02:54:48.632Z,1.52
2023-02-06T02:57:30.588Z,1.30
2023-02-06T03:00:03.621Z,1.20
2023-02-06T03:02:38.350Z,1.55
2023-02-06T03:05:13.372Z,1.17
2023-02-06T03:08:10.320Z,1.20
2023-02-06T03:10:50.940Z,1.20
2023-02-06T03:13:49.630Z,1.20
2023-02-06T03:16:31.259Z,1.30
2023-02-06T03:19:20.197Z,1.58
2023-02-06T03:21:52.788Z,1.30
2023-02-06T03:24:27.264Z,1.27
2023-02-06T03:27:02.274Z,1.23
2023-02-06T03:29:35.469Z,1.83
2023-02-06T03:32:19.649Z,1.13
2023-02-06T03:35:07.476Z,1.27
2023-02-06T03:37:39.718Z,1.10
2023-02-06T03:40:11.773Z,1.25
2023-02-06T03:42:47.138Z,1.40
2023-02-06T03:45:40.525Z,1.55
2023-02-06T03:48:15.411Z,1.30
2023-02-06T03:50:49.416Z,1.42
2023-02-06T03:53:23.716Z,1.40
2023-02-06T03:55:58.341Z,1.30
2023-02-06T03:58:29.978Z,1.38
2023-02-06T04:01:02.495Z,1.30
2023-02-06T04:03:34.464Z,1.35
2023-02-06T04:06:05.653Z,1.63
2023-02-06T04:08:37.553Z,1.45
2023-02-06T04:11:08.869Z,1.40
2023-02-06T04:13:40.057Z,1.58
2023-02-06T04:16:11.360Z,1.40
2023-02-06T04:18:42.552Z,2.00
2023-02-06T04:23:44.336Z,1.52
2023-02-06T04:26:15.687Z,1.40
2023-02-06T04:28:46.785Z,1.52
2023-02-06T04:31:17.951Z,1.33
2023-02-06T04:36:19.651Z,1.48
2023-02-06T04:38:50.605Z,1.63
2023-02-06T04:41:25.128Z,1.70
2023-02-06T04:43:56.263Z,1.83
2023-02-06T04:46:28.075Z,1.67
2023-02-06T04:51:29.826Z,2.03
2023-02-06T04:56:31.802Z,1.83
2023-02-06T04:59:02.891Z,1.88
2023-02-06T05:01:34.584Z,1.75
2023-02-06T05:04:06.198Z,1.48
2023-02-06T05:06:37.902Z,1.85
2023-02-06T05:09:09.429Z,1.90
2023-02-06T05:11:40.630Z,1.70
2023-02-06T05:16:42.529Z,2.00
2023-02-06T05:19:13.546Z,1.50
2023-02-06T05:24:15.700Z,1.60
2023-02-06T05:26:47.924Z,1.90
2023-02-06T05:29:18.957Z,1.60
2023-02-06T05:31:50.113Z,1.63
2023-02-06T05:34:24.011Z,1.83
2023-02-06T05:39:25.870Z,1.50
2023-02-06T05:41:56.860Z,1.90
2023-02-06T05:44:28.118Z,1.50
2023-02-06T05:46:59.771Z,1.60
2023-02-06T05:49:31.080Z,1.67
2023-02-06T05:52:02.388Z,1.45
2023-02-06T05:54:33.848Z,1.27
2023-02-06T05:57:05.624Z,2.03
2023-02-06T05:59:36.939Z,1.23
2023-02-06T06:02:08.442Z,1.60
2023-02-06T06:07:09.794Z,1.60
2023-02-06T06:09:42.428Z,1.50
2023-02-06T06:12:13.686Z,1.50
2023-02-06T06:17:15.573Z,1.83
2023-02-06T06:22:17.683Z,1.83
2023-02-06T06:24:49.245Z,1.98
2023-02-06T06:27:20.381Z,1.92
2023-02-06T06:29:51.746Z,1.88
2023-02-06T06:32:23.004Z,1.80
2023-02-06T06:34:53.950Z,2.00
2023-02-06T06:37:25.336Z,1.77
2023-02-06T06:39:56.493Z,1.75
2023-02-06T06:42:27.666Z,2.20
2023-02-06T06:47:30.233Z,2.20
2023-02-06T06:50:01.468Z,2.05
2023-02-06T06:52:33.584Z,1.60
2023-02-06T06:55:04.862Z,1.73
2023-02-06T06:57:35.979Z,1.98
2023-02-06T07:00:07.736Z,1.80
2023-02-06T07:05:09.486Z,1.77
2023-02-06T07:07:40.889Z,1.92
2023-02-06T07:10:13.014Z,1.88
2023-02-06T07:12:44.588Z,1.70
2023-02-06T07:15:15.750Z,2.10
2023-02-06T07:17:46.745Z,1.92
2023-02-06T07:20:18.227Z,2.15
2023-02-06T07:22:51.244Z,1.88
2023-02-06T07:25:22.817Z,1.90
2023-02-06T07:27:54.145Z,1.70
2023-02-06T07:30:25.471Z,2.13
2023-02-06T07:32:56.505Z,1.80
2023-02-06T07:35:27.425Z,2.20
2023-02-06T07:37:58.999Z,2.15
2023-02-06T07:40:44.053Z,2.03
2023-02-06T07:43:16.348Z,1.80
2023-02-06T07:45:47.870Z,1.92
2023-02-06T07:48:19.605Z,1.95
2023-02-06T07:50:50.960Z,2.30
2023-02-06T07:53:22.559Z,1.85
2023-02-06T07:58:24.225Z,2.00
2023-02-06T08:00:56.349Z,2.28
2023-02-06T08:03:27.932Z,1.92
2023-02-06T08:05:58.973Z,2.03
2023-02-06T08:08:30.129Z,2.30
2023-02-06T08:13:31.957Z,2.35
2023-02-06T08:16:10.175Z,2.65
2023-02-06T08:18:41.740Z,3.60
2023-02-06T08:21:15.157Z,3.33
2023-02-06T08:23:47.340Z,3.03
2023-02-06T08:28:52.131Z,2.92
2023-02-06T08:31:26.480Z,2.60
2023-02-06T08:33:58.624Z,2.40
2023-02-06T08:36:33.486Z,2.58
2023-02-06T08:39:06.144Z,2.20
2023-02-06T08:41:40.045Z,2.17
2023-02-06T08:44:18.707Z,1.83
2023-02-06T08:46:56.198Z,1.92
2023-02-06T08:49:33.434Z,2.70
2023-02-06T08:52:04.939Z,2.30
2023-02-06T08:54:38.746Z,2.35
2023-02-06T08:57:11.250Z,2.17
2023-02-06T08:59:43.032Z,2.55
2023-02-06T09:02:14.413Z,2.13
2023-02-06T09:04:46.042Z,2.30
2023-02-06T09:07:17.456Z,2.85
2023-02-06T09:12:19.437Z,2.67
2023-02-06T09:14:51.402Z,2.00
2023-02-06T09:19:53.309Z,2.40
2023-02-06T09:22:24.493Z,2.40
2023-02-06T09:24:55.864Z,2.05
2023-02-06T09:27:26.937Z,2.08
2023-02-06T09:29:58.051Z,2.05
2023-02-06T09:32:29.054Z,2.40
2023-02-06T09:35:00.838Z,2.10
2023-02-06T09:37:35.241Z,2.10
2023-02-06T09:40:06.525Z,2.20
2023-02-06T09:42:40.447Z,2.10
2023-02-06T09:45:32.477Z,2.10
2023-02-06T09:48:24.646Z,2.30
2023-02-06T09:51:08.893Z,2.10
2023-02-06T09:54:01.493Z,2.00
2023-02-06T09:56:52.897Z,2.22
2023-02-06T09:59:33.699Z,2.03
2023-02-06T10:02:07.621Z,2.00
2023-02-06T10:04:54.330Z,2.53
2023-02-06T10:07:32.911Z,2.10
2023-02-06T10:10:20.646Z,2.17
2023-02-06T10:13:11.535Z,2.10
2023-02-06T10:15:54.428Z,1.90
2023-02-06T10:18:41.538Z,2.00
2023-02-06T10:21:15.454Z,2.30
2023-02-06T10:24:21.664Z,1.90
2023-02-06T10:26:55.012Z,2.00
2023-02-06T10:29:31.837Z,1.83
2023-02-06T10:32:23.415Z,2.30
2023-02-06T10:35:06.439Z,1.95
2023-02-06T10:38:10.719Z,2.03
2023-02-06T10:40:48.881Z,2.30
2023-02-06T10:43:46.178Z,1.90
2023-02-06T10:46:40.523Z,2.33
2023-02-06T10:49:38.136Z,2.00
2023-02-06T10:52:31.342Z,2.00
2023-02-06T10:55:26.196Z,2.17
2023-02-06T10:58:18.304Z,2.13
2023-02-06T11:00:51.161Z,2.03
2023-02-06T11:03:26.194Z,2.53
2023-02-06T11:05:58.198Z,2.00
2023-02-06T11:08:41.847Z,1.95
2023-02-06T11:11:28.286Z,2.33
2023-02-06T11:14:13.892Z,2.10
2023-02-06T11:16:45.464Z,2.30
2023-02-06T11:19:27.981Z,2.13
2023-02-06T11:22:11.986Z,1.95
2023-02-06T11:25:03.935Z,1.70
2023-02-06T11:27:37.051Z,2.20
2023-02-06T11:30:33.468Z,1.90
2023-02-06T11:33:38.081Z,2.13
2023-02-06T11:36:33.209Z,1.90
2023-02-06T11:39:08.675Z,1.80
2023-02-06T11:41:39.827Z,2.03
2023-02-06T11:44:16.210Z,1.95
2023-02-06T11:46:47.273Z,2.00
2023-02-06T11:49:28.143Z,2.20
2023-02-06T11:52:05.309Z,2.00
2023-02-06T11:54:37.908Z,2.17
2023-02-06T11:57:39.111Z,2.00
2023-02-06T12:00:30.285Z,2.13
2023-02-06T12:03:01.588Z,2.17
2023-02-06T12:05:37.657Z,1.80
2023-02-06T12:08:20.021Z,2.00
2023-02-06T12:10:58.770Z,1.83
2023-02-06T12:13:39.585Z,2.20
2023-02-06T12:16:12.890Z,2.03
2023-02-06T12:18:46.118Z,2.08
2023-02-06T12:21:26.428Z,2.03
2023-02-06T12:24:32.612Z,2.13
2023-02-06T12:27:12.153Z,2.00
2023-02-06T12:29:58.534Z,2.10
2023-02-06T12:32:44.117Z,2.28
2023-02-06T12:35:23.165Z,2.03
2023-02-06T12:37:58.426Z,1.95
2023-02-06T12:40:53.880Z,2.08
2023-02-06T12:43:25.143Z,2.47
2023-02-06T12:46:06.504Z,2.10
2023-02-06T12:48:54.563Z,1.90
2023-02-06T12:51:25.379Z,2.33
2023-02-06T12:54:03.650Z,2.22
2023-02-06T12:56:46.366Z,1.90
2023-02-06T12:59:52.266Z,1.98
2023-02-06T13:02:31.316Z,2.10
2023-02-06T13:05:07.251Z,2.08
2023-02-06T13:07:49.293Z,2.15
2023-02-06T13:10:23.357Z,1.85
2023-02-06T13:13:01.759Z,1.88
2023-02-06T13:15:43.095Z,1.63
2023-02-06T13:18:41.500Z,2.40
2023-02-06T13:21:33.601Z,2.40
2023-02-06T13:24:04.467Z,2.00
2023-02-06T13:26:52.953Z,2.20
2023-02-06T13:29:29.117Z,2.45
2023-02-06T13:32:21.278Z,2.15
2023-02-06T13:37:29.117Z,2.10
2023-02-06T13:40:28.116Z,2.00
2023-02-06T13:43:02.304Z,2.42
2023-02-06T13:45:49.061Z,2.05
2023-02-06T13:48:41.451Z,2.40
2023-02-06T13:51:31.729Z,2.55
2023-02-06T13:54:24.142Z,2.70
2023-02-06T13:57:26.196Z,2.10
2023-02-06T14:00:06.187Z,1.90
2023-02-06T14:02:44.001Z,2.00
2023-02-06T14:05:32.282Z,1.90
2023-02-06T14:08:27.137Z,1.73
2023-02-06T14:11:01.421Z,2.50
2023-02-06T14:14:00.407Z,2.33
2023-02-06T14:16:44.725Z,2.00
2023-02-06T14:19:42.615Z,2.05
2023-02-06T14:22:37.393Z,2.00
2023-02-06T14:25:33.455Z,2.30
2023-02-06T14:28:19.154Z,2.20
2023-02-06T14:30:50.258Z,2.30
2023-02-06T14:33:39.722Z,2.40
2023-02-06T14:36:46.376Z,2.20
2023-02-06T14:39:35.921Z,2.20
2023-02-06T14:42:25.018Z,2.42
2023-02-06T14:45:07.655Z,2.22
2023-02-06T14:47:44.551Z,2.25
2023-02-06T14:50:32.444Z,2.20
2023-02-06T14:53:12.022Z,2.05
2023-02-06T14:55:46.586Z,2.95
2023-02-06T14:58:30.637Z,2.17
2023-02-06T15:01:25.701Z,2.20
2023-02-06T15:04:17.802Z,2.33
2023-02-06T15:06:56.539Z,2.28
2023-02-06T15:09:34.856Z,2.85
2023-02-06T15:12:20.963Z,2.13
2023-02-06T15:15:04.301Z,2.40
2023-02-06T15:17:35.917Z,2.88
2023-02-06T15:20:30.042Z,2.63
2023-02-06T15:23:17.216Z,2.67
2023-02-06T15:26:04.675Z,2.50
2023-02-06T15:28:37.280Z,2.63
2023-02-06T15:31:19.345Z,3.13
2023-02-06T15:33:59.619Z,2.17
2023-02-06T15:36:37.162Z,2.42
2023-02-06T15:39:11.006Z,2.80
2023-02-06T15:41:48.170Z,2.10
2023-02-06T15:44:25.463Z,2.53
2023-02-06T15:46:57.909Z,2.33
2023-02-06T15:49:35.697Z,2.40
2023-02-06T15:52:08.271Z,2.03
2023-02-06T15:54:43.887Z,2.50
2023-02-06T15:57:28.693Z,2.20
2023-02-06T16:00:00.705Z,2.15
2023-02-06T16:02:39.634Z,2.22
2023-02-06T16:05:17.773Z,2.22
2023-02-06T16:07:50.947Z,2.42
2023-02-06T16:10:24.811Z,2.42
2023-02-06T16:12:58.809Z,2.88
2023-02-06T16:15:41.505Z,2.25
2023-02-06T16:18:29.229Z,2.40
2023-02-06T16:21:25.876Z,2.60
2023-02-06T16:24:05.393Z,2.70
2023-02-06T16:26:45.916Z,2.30
2023-02-06T16:29:32.268Z,2.90
2023-02-06T16:32:20.876Z,3.50
2023-02-06T16:34:53.102Z,2.38
2023-02-06T16:37:29.808Z,2.42
2023-02-06T16:40:00.961Z,2.15
2023-02-06T16:42:38.217Z,2.60
2023-02-06T16:45:20.384Z,2.40
2023-02-06T16:47:51.837Z,3.00
2023-02-06T16:50:23.637Z,2.78
2023-02-06T16:52:57.383Z,2.45
2023-02-06T16:55:30.315Z,2.60
2023-02-06T16:58:03.028Z,2.58
2023-02-06T17:00:35.269Z,2.30
2023-02-06T17:05:38.835Z,2.42
2023-02-06T17:08:28.121Z,2.33
2023-02-06T17:10:59.616Z,2.30
2023-02-06T17:13:31.028Z,2.70
2023-02-06T17:16:02.202Z,3.00
2023-02-06T17:18:33.464Z,2.10
2023-02-06T17:21:04.697Z,2.70
2023-02-06T17:23:36.668Z,2.58
2023-02-06T17:26:20.580Z,2.58
2023-02-06T17:28:53.081Z,2.58
2023-02-06T17:31:24.946Z,2.60
2023-02-06T17:36:34.489Z,2.42
2023-02-06T17:39:05.851Z,2.40
2023-02-06T17:41:37.758Z,2.60
2023-02-06T17:44:09.201Z,2.60
2023-02-06T17:46:40.834Z,2.53
2023-02-06T17:49:12.197Z,2.33
2023-02-06T17:51:44.763Z,2.80
2023-02-06T17:54:15.816Z,2.17
2023-02-06T17:56:46.958Z,2.25
2023-02-06T17:59:18.264Z,2.70
2023-02-06T18:01:50.299Z,2.05
2023-02-06T18:09:24.857Z,2.20
2023-02-06T18:14:26.434Z,2.50
2023-02-06T18:16:58.176Z,2.20
2023-02-06T18:19:29.411Z,2.03
2023-02-06T18:22:00.578Z,2.20
2023-02-06T18:24:31.660Z,1.90
2023-02-06T18:27:07.015Z,2.30
2023-02-06T18:29:49.853Z,2.33
2023-02-06T18:32:21.791Z,1.98
2023-02-06T18:34:53.006Z,1.92
2023-02-06T18:37:24.311Z,2.00
2023-02-06T18:39:56.814Z,2.10
2023-02-06T18:42:45.645Z,1.95
2023-02-06T18:45:16.973Z,1.92
2023-02-06T18:47:48.601Z,2.28
2023-02-06T18:50:23.851Z,1.90
2023-02-06T18:52:55.043Z,2.25
2023-02-06T18:55:26.817Z,2.30
2023-02-06T19:00:28.417Z,2.08
2023-02-06T19:03:00.740Z,2.20
2023-02-06T19:05:35.422Z,2.30
2023-02-06T19:08:07.609Z,2.00
2023-02-06T19:10:39.070Z,2.72
2023-02-06T19:15:41.019Z,1.77
2023-02-06T19:18:12.190Z,2.10
2023-02-06T19:20:46.397Z,1.90
2023-02-06T19:23:17.617Z,2.03
2023-02-06T19:25:49.058Z,2.35
2023-02-06T19:28:20.013Z,2.10
2023-02-06T19:30:51.300Z,2.15
2023-02-06T19:33:22.764Z,1.90
2023-02-06T19:35:53.908Z,2.17
2023-02-06T19:38:25.118Z,1.90
2023-02-06T19:40:56.100Z,2.05
2023-02-06T19:43:27.413Z,2.35
2023-02-06T19:45:58.599Z,2.45
2023-02-06T19:48:29.752Z,2.17
2023-02-06T19:51:12.664Z,2.22
2023-02-06T19:53:47.216Z,1.88
2023-02-06T19:56:23.859Z,2.50
2023-02-06T19:59:00.608Z,1.98
2023-02-06T20:01:36.944Z,1.70
2023-02-06T20:04:08.739Z,1.67
2023-02-06T20:06:40.067Z,1.70
2023-02-06T20:09:11.993Z,1.63
2023-02-06T20:11:44.318Z,2.10
2023-02-06T20:14:15.653Z,1.73
2023-02-06T20:16:48.594Z,1.75
2023-02-06T20:19:23.311Z,2.00
2023-02-06T20:21:56.811Z,1.70
2023-02-06T20:24:31.215Z,2.10
2023-02-06T20:27:07.198Z,1.90
2023-02-06T20:29:41.278Z,1.70
2023-02-06T20:32:13.583Z,2.20
2023-02-06T20:34:45.037Z,1.80
2023-02-06T20:37:16.298Z,1.60
2023-02-06T20:39:47.604Z,1.50
2023-02-06T20:42:20.836Z,1.48
2023-02-06T20:44:51.946Z,1.90
2023-02-06T20:47:22.924Z,1.60
2023-02-06T20:49:54.199Z,1.60
2023-02-06T20:52:25.200Z,2.50
2023-02-06T20:54:56.367Z,2.92
2023-02-06T20:57:28.091Z,1.60
2023-02-06T21:02:30.717Z,1.88
2023-02-06T21:05:02.617Z,1.45
2023-02-06T21:07:34.866Z,1.65
2023-02-06T21:10:06.671Z,1.60
2023-02-06T21:12:38.154Z,1.88
2023-02-06T21:15:09.686Z,1.65
2023-02-06T21:17:41.107Z,1.50
2023-02-06T21:20:12.696Z,1.60
2023-02-06T21:25:14.624Z,1.42
2023-02-06T21:30:16.501Z,1.52
2023-02-06T21:32:47.904Z,1.70
2023-02-06T21:35:18.962Z,1.50
2023-02-06T21:37:50.294Z,1.70
2023-02-06T21:40:22.502Z,1.60
2023-02-06T21:42:53.641Z,1.60
2023-02-06T21:45:25.113Z,1.33
2023-02-06T21:47:56.221Z,1.40
2023-02-06T21:50:27.810Z,1.30
2023-02-06T21:52:59.222Z,1.30
2023-02-06T21:55:33.049Z,1.40
2023-02-06T21:58:04.923Z,1.33
2023-02-06T22:00:35.857Z,1.52
2023-02-06T22:03:06.910Z,1.50
2023-02-06T22:05:39.465Z,1.40
2023-02-06T22:08:10.734Z,1.67
2023-02-06T22:10:41.829Z,1.40
2023-02-06T22:13:13.157Z,1.40
2023-02-06T22:15:52.804Z,1.13
2023-02-06T22:18:24.250Z,1.20
2023-02-06T22:21:06.511Z,1.33
2023-02-06T22:23:38.201Z,1.15
2023-02-06T22:26:11.032Z,1.50
2023-02-06T22:28:43.266Z,1.80
2023-02-06T22:31:15.493Z,1.30
2023-02-06T22:33:46.704Z,1.40
2023-02-06T22:36:20.065Z,1.60
2023-02-06T22:38:58.892Z,1.60
2023-02-06T22:41:30.999Z,1.27
2023-02-06T22:44:02.382Z,1.42
2023-02-06T22:46:36.443Z,1.55
2023-02-06T22:49:08.781Z,1.40
2023-02-06T22:51:41.342Z,1.45
2023-02-06T22:54:12.919Z,1.42
2023-02-06T22:59:21.227Z,1.45
2023-02-06T23:02:00.384Z,1.30
2023-02-06T23:04:36.218Z,1.60
2023-02-06T23:07:07.970Z,1.10
2023-02-06T23:12:12.878Z,1.30
2023-02-06T23:14:45.362Z,1.40
2023-02-06T23:17:16.819Z,1.30
2023-02-06T23:19:47.897Z,1.10
2023-02-06T23:24:53.043Z,1.10
2023-02-06T23:27:24.381Z,1.10
2023-02-06T23:29:55.438Z,1.38
2023-02-06T23:34:57.990Z,1.20
2023-02-06T23:37:32.210Z,1.10
2023-02-06T23:40:03.610Z,1.25
2023-02-06T23:42:34.899Z,1.13
2023-02-06T23:47:37.395Z,1.30
2023-02-06T23:50:08.815Z,0.93
2023-02-06T23:52:40.257Z,1.10
2023-02-06T23:55:12.030Z,1.15
2023-02-06T23:57:43.621Z,1.17
